Time;durP1;ratioP1;P1;durP2;ratioP2;P2;SDS_P1;SDS_P2;PMS_P1;PMS_P2;Temp;Humidity;BMP_temperature;BMP_pressure;BME280_temperature;BME280_humidity;BME280_pressure;Samples;Min_cycle;Max_cycle;Signal;HPM_P1;HPM_P2
2022/12/03 00:01:16;;;;;;;0.10;0.10;;;5.70;99.90;;;;;;4985104;28;20045;-74
2022/12/03 00:03:42;;;;;;;17.85;16.52;;;5.70;99.90;;;;;;4983437;28;20518;-75
2022/12/03 00:06:07;;;;;;;1.33;1.30;;;5.60;99.90;;;;;;4982777;28;20081;-74
2022/12/03 00:08:33;;;;;;;0.10;0.10;;;5.70;99.90;;;;;;4983485;28;20109;-74
2022/12/03 00:10:59;;;;;;;3.22;2.95;;;5.60;99.90;;;;;;4964962;28;20035;-74
2022/12/03 00:13:25;;;;;;;4.47;4.28;;;6.10;99.90;;;;;;4983652;28;20276;-74
2022/12/03 00:15:50;;;;;;;0.50;0.50;;;5.60;99.90;;;;;;4983112;28;20022;-75
2022/12/03 00:18:16;;;;;;;3.40;3.30;;;5.60;99.90;;;;;;4984718;28;20065;-74
2022/12/03 00:20:42;;;;;;;0.10;0.10;;;5.60;99.90;;;;;;4984343;28;20026;-74
2022/12/03 00:23:07;;;;;;;2.83;2.72;;;5.60;99.90;;;;;;4983616;28;20402;-74
2022/12/03 00:25:33;;;;;;;0.50;0.50;;;5.60;99.90;;;;;;4983211;28;20030;-74
2022/12/03 00:27:59;;;;;;;1.55;1.50;;;5.60;99.90;;;;;;4983335;28;20068;-73
2022/12/03 00:30:25;;;;;;;2.10;2.08;;;5.50;99.90;;;;;;4965271;28;20745;-74
2022/12/03 00:32:50;;;;;;;1.77;1.75;;;5.60;99.90;;;;;;4982883;28;20143;-75
2022/12/03 00:35:16;;;;;;;0.20;0.20;;;5.50;99.90;;;;;;4982617;28;20084;-74
2022/12/03 00:37:42;;;;;;;2.33;2.25;;;5.50;99.90;;;;;;4982860;28;20034;-75
2022/12/03 00:40:10;;;;;;;0.10;0.10;;;5.50;99.90;;;;;;4982428;28;20447;-74
2022/12/03 00:42:35;;;;;;;1.40;1.35;;;5.50;99.90;;;;;;4982817;28;20304;-75
2022/12/03 00:45:01;;;;;;;11.82;7.97;;;5.40;99.90;;;;;;4983183;28;20022;-74
2022/12/03 00:47:27;;;;;;;6.80;6.50;;;5.40;99.90;;;;;;4983612;28;20482;-74
2022/12/03 00:49:53;;;;;;;0.10;0.10;;;5.40;99.90;;;;;;4969738;28;20035;-74
2022/12/03 00:52:19;;;;;;;1.75;1.75;;;5.40;99.90;;;;;;4987647;28;20034;-74
2022/12/03 00:54:45;;;;;;;51.63;46.38;;;5.40;99.90;;;;;;4988906;28;20026;-74
2022/12/03 00:57:11;;;;;;;0.20;0.20;;;;;;;;;;4987635;28;20022;-74
2022/12/03 00:59:37;;;;;;;0.60;0.60;;;;;;;;;;4988668;28;20066;-74
2022/12/03 01:02:03;;;;;;;0.10;0.10;;;5.50;99.90;;;;;;4970684;28;20034;-75
2022/12/03 01:04:28;;;;;;;0.75;0.75;;;5.40;99.90;;;;;;4970159;28;20042;-75
2022/12/03 01:06:55;;;;;;;0.00;0.00;;;5.50;99.90;;;;;;4987875;28;20050;-74
2022/12/03 01:09:21;;;;;;;0.45;0.45;;;5.60;99.90;;;;;;4983649;28;20106;-74
2022/12/03 01:11:47;;;;;;;0.10;0.10;;;5.50;99.90;;;;;;4982872;28;20597;-74
2022/12/03 01:14:15;;;;;;;0.10;0.10;;;5.50;99.90;;;;;;4982299;28;20030;-74
2022/12/03 01:16:41;;;;;;;0.75;0.75;;;5.60;99.90;;;;;;4981906;28;20034;-74
2022/12/03 01:19:09;;;;;;;3.88;3.75;;;5.60;99.90;;;;;;4982459;28;20351;-74
2022/12/03 01:21:36;;;;;;;15.80;15.05;;;5.60;99.90;;;;;;4984928;28;20505;-74
2022/12/03 01:24:03;;;;;;;0.45;0.45;;;5.60;99.90;;;;;;4983558;28;20030;-74
2022/12/03 01:26:29;;;;;;;0.73;0.73;;;;;;;;;;4964455;28;20030;-75
2022/12/03 01:28:55;;;;;;;0.60;0.60;;;;;;;;;;4984526;28;20315;-74
2022/12/03 01:34:05;;;;;;;;;;;5.60;99.90;;;;;;4982700;28;20505;-74
2022/12/03 01:36:33;;;;;;;0.20;0.20;;;5.30;99.90;;;;;;4982004;28;19910;-74
2022/12/03 01:38:59;;;;;;;4.35;4.20;;;5.60;99.90;;;;;;4981776;28;20066;-74
2022/12/03 01:41:25;;;;;;;4.05;3.80;;;5.60;99.90;;;;;;4981565;28;20018;-74
2022/12/03 01:43:52;;;;;;;0.10;0.10;;;5.60;99.90;;;;;;4981282;28;20176;-74
2022/12/03 01:46:21;;;;;;;2.83;2.72;;;5.60;99.90;;;;;;4963990;28;20018;-74
2022/12/03 01:48:49;;;;;;;0.10;0.10;;;5.60;99.90;;;;;;4981493;28;20403;-74
2022/12/03 01:51:15;;;;;;;0.10;0.10;;;5.30;99.90;;;;;;4981232;28;20038;-75
2022/12/03 01:53:42;;;;;;;5.45;5.25;;;5.50;99.90;;;;;;4981024;28;20674;-74
2022/12/03 01:56:17;;;;;;;0.10;0.10;;;5.50;99.90;;;;;;4963397;28;20038;-74
2022/12/03 01:58:44;;;;;;;2.85;2.75;;;5.50;99.90;;;;;;4981460;28;20033;-73
2022/12/03 02:01:15;;;;;;;0.60;0.60;;;5.50;99.90;;;;;;4982391;28;20312;-74
2022/12/03 02:03:42;;;;;;;0.10;0.10;;;5.50;99.90;;;;;;4981071;28;20391;-75
2022/12/03 02:06:16;;;;;;;0.10;0.10;;;5.60;99.90;;;;;;4980981;28;20041;-74
2022/12/03 02:08:42;;;;;;;;;;;5.60;99.90;;;;;;4982374;28;20211;-74
2022/12/03 02:11:13;;;;;;;0.10;0.10;;;4.00;99.90;;;;;;4981788;28;19906;-74
2022/12/03 02:13:40;;;;;;;0.10;0.10;;;5.60;99.90;;;;;;4980771;28;20030;-74
2022/12/03 02:16:06;;;;;;;1.33;1.27;;;5.50;99.90;;;;;;4980847;28;20037;-73
2022/12/03 02:18:33;;;;;;;3.80;3.70;;;5.60;99.90;;;;;;4980994;28;20201;-74
2022/12/03 02:21:28;;;;;;;2.58;2.47;;;5.50;99.90;;;;;;4981232;28;20018;-74
2022/12/03 02:24:02;;;;;;;0.10;0.10;;;5.50;99.90;;;;;;4980838;28;20101;-74
2022/12/03 02:26:28;;;;;;;1.02;1.02;;;5.50;99.90;;;;;;4983374;28;20034;-73
2022/12/03 02:28:55;;;;;;;0.10;0.10;;;5.30;99.90;;;;;;4982256;28;20022;-74
2022/12/03 02:31:22;;;;;;;2.03;1.95;;;5.40;99.90;;;;;;4980860;28;20320;-74
2022/12/03 02:33:48;;;;;;;15.18;14.50;;;5.40;99.90;;;;;;4980953;28;20054;-73
2022/12/03 02:36:14;;;;;;;0.10;0.10;;;5.30;99.90;;;;;;4980955;28;20038;-74
2022/12/03 02:38:42;;;;;;;0.40;0.40;;;5.30;99.90;;;;;;4980427;28;20112;-74
2022/12/03 02:42:33;;;;;;;0.55;0.55;;;5.30;99.90;;;;;;4980531;28;20029;-74
2022/12/03 02:43:57;;;;;;;0.10;0.10;;;5.30;99.90;;;;;;4983292;28;20035;-74
2022/12/03 02:46:23;;;;;;;0.43;0.43;;;5.30;99.90;;;;;;4980722;28;20048;-74
2022/12/03 02:48:49;;;;;;;0.10;0.10;;;5.30;99.90;;;;;;4980830;28;20604;-74
2022/12/03 02:51:15;;;;;;;3.35;3.22;;;5.30;99.90;;;;;;4980498;28;20022;-74
2022/12/03 02:53:45;;;;;;;12.13;11.38;;;5.30;99.90;;;;;;4980769;28;20117;-74
2022/12/03 02:56:14;;;;;;;1.45;1.40;;;5.30;99.90;;;;;;4980541;28;20180;-73
2022/12/03 02:58:42;;;;;;;1.20;1.15;;;5.20;99.90;;;;;;4983086;28;20026;-74
2022/12/03 03:01:09;;;;;;;18.40;7.43;;;5.20;99.90;;;;;;4979958;28;20438;-74
2022/12/03 03:03:37;;;;;;;0.00;0.00;;;5.20;99.90;;;;;;4980992;28;20057;-74
2022/12/03 03:06:05;;;;;;;0.10;0.10;;;5.20;99.90;;;;;;4962656;28;20112;-74
2022/12/03 03:08:32;;;;;;;17.50;16.77;;;5.30;99.90;;;;;;4981054;28;20049;-74
2022/12/03 03:11:00;;;;;;;30.13;18.83;;;5.20;99.90;;;;;;4980548;28;20026;-74
2022/12/03 03:13:28;;;;;;;0.10;0.10;;;5.30;99.90;;;;;;4980402;28;20030;-74
2022/12/03 03:15:54;;;;;;;0.10;0.10;;;;;;;;;;4981710;28;20026;-73
2022/12/03 03:18:21;;;;;;;0.30;0.30;;;5.20;99.90;;;;;;4980449;28;20335;-73
2022/12/03 03:20:47;;;;;;;1.95;1.85;;;5.20;99.90;;;;;;4964438;28;20026;-74
2022/12/03 03:23:22;;;;;;;11.52;11.05;;;5.30;99.90;;;;;;4980065;28;20471;-74
2022/12/03 03:26:04;;;;;;;1.10;1.05;;;5.30;99.90;;;;;;4962365;28;20565;-74
2022/12/03 03:28:34;;;;;;;2.28;2.17;;;5.30;99.90;;;;;;4980145;28;20228;-73
2022/12/03 03:31:03;;;;;;;0.10;0.10;;;5.40;99.90;;;;;;4980156;28;20022;-74
2022/12/03 03:33:29;;;;;;;29.30;27.75;;;5.40;99.90;;;;;;4981450;28;20045;-74
2022/12/03 03:35:55;;;;;;;0.30;0.30;;;5.40;99.90;;;;;;4984119;28;20106;-74
2022/12/03 03:38:22;;;;;;;0.10;0.10;;;5.40;99.90;;;;;;4984003;28;20050;-74
2022/12/03 03:40:50;;;;;;;0.10;0.10;;;5.40;99.90;;;;;;4984405;28;20632;-74
2022/12/03 03:43:17;;;;;;;0.10;0.10;;;5.30;99.90;;;;;;4966078;28;20038;-74
2022/12/03 03:45:43;;;;;;;0.30;0.30;;;5.30;99.90;;;;;;4984199;28;20034;-74
2022/12/03 03:48:11;;;;;;;0.20;0.20;;;5.40;99.90;;;;;;4983841;28;20308;-74
2022/12/03 03:50:37;;;;;;;2.25;2.20;;;;;;;;;;4983723;28;20037;-74
2022/12/03 03:53:04;;;;;;;0.10;0.10;;;5.40;99.90;;;;;;4984106;28;20019;-73
2022/12/03 03:55:30;;;;;;;1.65;1.65;;;5.40;99.90;;;;;;4983464;28;20476;-74
2022/12/03 03:57:59;;;;;;;12.20;7.07;;;5.40;99.90;;;;;;4984880;28;20022;-74
2022/12/03 04:00:25;;;;;;;22.23;20.83;;;5.40;99.90;;;;;;4985605;28;20050;-74
2022/12/03 04:02:52;;;;;;;0.13;0.13;;;5.40;99.90;;;;;;4986743;28;20022;-74
2022/12/03 04:05:19;;;;;;;0.77;0.77;;;8.70;99.90;;;;;;4988152;28;20026;-74
2022/12/03 04:07:45;;;;;;;0.20;0.20;;;5.40;99.90;;;;;;4974179;28;20045;-75
2022/12/03 04:12:57;;;;;;;0.10;0.10;;;5.40;99.90;;;;;;4990794;28;20073;-76
2022/12/03 04:15:23;;;;;;;0.10;0.10;;;5.30;99.90;;;;;;4989006;28;20249;-74
2022/12/03 04:18:41;;;;;;;0.88;0.88;;;5.40;99.90;;;;;;4984862;28;20022;-74
2022/12/03 04:20:37;;;;;;;0.10;0.10;;;5.40;99.90;;;;;;4984559;28;20328;-74
2022/12/03 04:23:03;;;;;;;0.40;0.40;;;5.50;99.90;;;;;;4984428;28;20034;-74
2022/12/03 04:30:57;;;;;;;3.33;3.22;;;5.50;99.90;;;;;;4984358;28;20305;-74
2022/12/03 04:36:07;;;;;;;2.40;2.20;;;5.60;99.90;;;;;;4987498;28;20225;-74
2022/12/03 04:38:33;;;;;;;8.35;6.07;;;;;;;;;;4991088;28;20232;-74
2022/12/03 04:40:59;;;;;;;0.40;0.40;;;5.50;99.90;;;;;;4990586;28;20034;-74
2022/12/03 04:43:28;;;;;;;7.28;6.82;;;5.50;99.90;;;;;;4972802;28;20022;-74
2022/12/03 04:45:54;;;;;;;5.18;4.95;;;5.50;99.90;;;;;;4986565;28;20165;-74
2022/12/03 04:48:20;;;;;;;22.67;12.93;;;5.50;99.90;;;;;;4984582;28;20113;-74
2022/12/03 04:50:45;;;;;;;0.10;0.10;;;5.40;99.90;;;;;;4985057;28;20137;-74
2022/12/03 04:53:12;;;;;;;0.10;0.10;;;5.40;99.90;;;;;;4984578;28;20046;-74
2022/12/03 04:55:41;;;;;;;0.10;0.10;;;5.40;99.90;;;;;;4984429;28;20022;-74
2022/12/03 04:58:07;;;;;;;3.75;2.60;;;;;;;;;;4965940;28;20022;-74
2022/12/03 05:00:33;;;;;;;0.63;0.63;;;5.30;99.90;;;;;;4983886;28;20027;-74
2022/12/03 05:02:58;;;;;;;8.68;7.82;;;5.30;99.90;;;;;;4985251;28;20033;-74
2022/12/03 05:05:24;;;;;;;0.00;0.00;;;5.30;99.90;;;;;;4985871;28;20041;-74
2022/12/03 05:07:50;;;;;;;0.20;0.20;;;5.30;99.90;;;;;;4967035;28;20035;-74
2022/12/03 05:10:16;;;;;;;0.77;0.77;;;5.20;99.90;;;;;;4982325;28;20124;-74
2022/12/03 05:12:41;;;;;;;0.77;0.77;;;5.20;99.90;;;;;;4982038;28;20026;-74
2022/12/03 05:15:07;;;;;;;0.43;0.43;;;5.20;99.90;;;;;;4982245;28;20033;-73
2022/12/03 05:17:33;;;;;;;0.10;0.10;;;5.20;99.90;;;;;;4983880;28;20109;-74
2022/12/03 05:22:43;;;;;;;0.10;0.10;;;5.20;99.90;;;;;;4983618;28;20228;-74
2022/12/03 05:25:09;;;;;;;0.68;0.68;;;5.20;99.90;;;;;;4964958;28;20031;-74
2022/12/03 05:27:35;;;;;;;0.30;0.30;;;5.20;99.90;;;;;;4985464;28;20680;-74
2022/12/03 05:30:01;;;;;;;0.10;0.10;;;5.20;99.90;;;;;;4983274;28;20106;-74
2022/12/03 05:32:26;;;;;;;0.03;0.03;;;5.20;99.90;;;;;;4965353;28;20033;-74
2022/12/03 05:34:52;;;;;;;0.00;0.00;;;5.10;99.90;;;;;;4984568;28;20034;-74
2022/12/03 05:37:18;;;;;;;0.10;0.10;;;4.80;99.90;;;;;;4984505;28;20030;-74
2022/12/03 05:39:43;;;;;;;0.03;0.03;;;5.10;99.90;;;;;;4965793;28;20414;-75
2022/12/03 05:44:54;;;;;;;0.10;0.10;;;5.10;99.90;;;;;;4983934;28;20045;-74
2022/12/03 05:47:20;;;;;;;7.68;7.43;;;5.20;99.90;;;;;;4983903;28;20034;-74
2022/12/03 05:49:45;;;;;;;0.10;0.10;;;5.00;99.90;;;;;;4984425;28;20022;-74
2022/12/03 05:52:11;;;;;;;2.03;2.00;;;5.00;99.90;;;;;;4984718;28;20327;-73
2022/12/03 05:54:37;;;;;;;0.10;0.10;;;5.00;99.90;;;;;;4984594;28;20030;-74
2022/12/03 05:57:03;;;;;;;8.65;6.13;;;5.00;99.90;;;;;;4983559;28;20080;-73
2022/12/03 05:59:29;;;;;;;1.65;1.55;;;5.00;99.90;;;;;;4983554;28;20118;-74
2022/12/03 06:01:55;;;;;;;0.20;0.20;;;5.10;99.90;;;;;;4983545;28;20437;-73
2022/12/03 06:04:20;;;;;;;0.10;0.10;;;5.10;99.90;;;;;;4983197;28;20069;-74
2022/12/03 06:06:46;;;;;;;61.80;59.50;;;5.10;99.90;;;;;;4982583;28;20174;-74
2022/12/03 06:09:12;;;;;;;0.20;0.20;;;5.10;99.90;;;;;;4987034;28;20033;-74
2022/12/03 06:11:39;;;;;;;16.90;16.00;;;5.10;99.90;;;;;;4984414;28;20026;-73
2022/12/03 06:14:05;;;;;;;0.50;0.50;;;;;;;;;;4985192;28;20026;-74
2022/12/03 06:16:31;;;;;;;7.60;7.30;;;5.10;99.90;;;;;;4985902;28;20034;-74
2022/12/03 06:18:57;;;;;;;0.70;0.70;;;5.10;99.90;;;;;;4986413;28;20201;-74
2022/12/03 06:21:22;;;;;;;0.30;0.30;;;5.10;99.90;;;;;;4987232;28;20042;-73
2022/12/03 06:23:48;;;;;;;0.28;0.28;;;5.10;99.90;;;;;;4985977;28;20154;-74
2022/12/03 06:26:14;;;;;;;0.10;0.10;;;5.10;99.90;;;;;;4988092;28;20648;-74
2022/12/03 06:28:45;;;;;;;2.80;2.70;;;5.10;99.90;;;;;;4988178;28;20025;-74
2022/12/03 06:31:11;;;;;;;14.55;13.55;;;4.10;99.90;;;;;;4985811;28;20279;-73
2022/12/03 06:33:37;;;;;;;0.10;0.10;;;5.20;99.90;;;;;;4985827;28;20065;-74
2022/12/03 06:36:03;;;;;;;17.50;16.65;;;5.10;99.90;;;;;;4985650;28;20576;-74
2022/12/03 06:38:30;;;;;;;6.50;4.75;;;6.60;99.90;;;;;;4985956;28;20065;-73
2022/12/03 06:40:56;;;;;;;2.38;2.17;;;;;;;;;;4986119;28;20076;-74
2022/12/03 06:43:22;;;;;;;0.03;0.03;;;5.20;99.90;;;;;;4983722;28;20030;-74
2022/12/03 06:45:47;;;;;;;0.28;0.28;;;5.10;99.90;;;;;;4984385;28;20034;-74
2022/12/03 06:48:13;;;;;;;0.30;0.30;;;5.00;99.90;;;;;;4984801;28;20663;-74
2022/12/03 06:50:39;;;;;;;0.20;0.20;;;5.60;99.90;;;;;;4984800;28;20049;-74
2022/12/03 06:53:05;;;;;;;6.88;6.57;;;5.00;99.90;;;;;;4983693;28;20098;-74
2022/12/03 06:55:31;;;;;;;7.05;4.57;;;5.00;99.90;;;;;;4981959;28;20076;-74
2022/12/03 06:57:56;;;;;;;1.48;1.45;;;6.30;99.90;;;;;;4982909;28;20084;-73
2022/12/03 07:00:22;;;;;;;0.52;0.52;;;5.10;99.90;;;;;;4982676;28;20034;-74
2022/12/03 07:02:48;;;;;;;2.75;2.65;;;5.20;99.90;;;;;;4984552;28;20026;-73
2022/12/03 07:05:14;;;;;;;0.10;0.10;;;5.20;99.90;;;;;;4966325;28;20675;-73
2022/12/03 07:07:39;;;;;;;1.15;1.08;;;5.30;99.90;;;;;;4985130;28;20050;-74
2022/12/03 07:10:06;;;;;;;1.35;1.35;;;5.30;99.90;;;;;;4985217;28;20022;-74
2022/12/03 07:12:32;;;;;;;0.43;0.43;;;5.30;99.90;;;;;;4987929;28;20408;-73
2022/12/03 07:14:58;;;;;;;0.10;0.10;;;5.40;99.90;;;;;;4994606;28;20110;-74
2022/12/03 07:17:24;;;;;;;0.10;0.10;;;;;;;;;;4991992;28;20030;-74
2022/12/03 07:19:49;;;;;;;2.38;2.28;;;5.40;99.90;;;;;;4989779;28;20058;-74
2022/12/03 07:22:15;;;;;;;8.07;7.47;;;5.40;99.90;;;;;;4994388;28;20041;-74
2022/12/03 07:24:41;;;;;;;0.10;0.10;;;4.00;99.90;;;;;;4995483;28;20030;-75
2022/12/03 07:27:07;;;;;;;7.47;6.85;;;5.40;99.90;;;;;;4992745;28;20068;-74
2022/12/03 07:29:34;;;;;;;2.33;2.25;;;5.40;99.90;;;;;;4992075;28;20031;-74
2022/12/03 07:32:01;;;;;;;2.22;2.17;;;5.40;99.90;;;;;;4987516;28;20019;-74
2022/12/03 07:34:27;;;;;;;0.17;0.17;;;5.30;99.90;;;;;;4986659;28;20450;-74
2022/12/03 07:36:53;;;;;;;18.73;4.53;;;5.40;99.90;;;;;;4988359;28;20030;-74
2022/12/03 07:39:19;;;;;;;1.33;1.33;;;;;;;;;;4986050;28;20038;-74
2022/12/03 07:41:45;;;;;;;0.00;0.00;;;5.40;99.90;;;;;;4982198;28;20603;-74
2022/12/03 07:44:11;;;;;;;8.00;7.68;;;5.40;99.90;;;;;;4964231;28;20022;-74
2022/12/03 07:46:38;;;;;;;0.30;0.30;;;;;;;;;;4981163;28;20030;-74
2022/12/03 07:49:04;;;;;;;0.47;0.47;;;5.50;99.90;;;;;;4980823;28;20019;-74
2022/12/03 07:51:30;;;;;;;22.85;6.60;;;5.50;99.90;;;;;;4980899;28;20536;-74
2022/12/03 07:53:56;;;;;;;10.77;10.15;;;5.60;99.90;;;;;;4964360;28;20022;-74
2022/12/03 07:56:22;;;;;;;0.10;0.10;;;5.60;99.90;;;;;;4981819;28;20225;-75
2022/12/03 07:58:48;;;;;;;4.97;4.78;;;5.60;99.90;;;;;;4963924;28;20022;-74
2022/12/03 08:01:13;;;;;;;0.15;0.15;;;5.60;99.90;;;;;;4962944;28;20591;-74
2022/12/03 08:03:41;;;;;;;1.77;1.77;;;4.40;99.90;;;;;;4981000;28;20096;-74
2022/12/03 08:06:08;;;;;;;0.17;0.17;;;5.70;99.90;;;;;;4981906;28;20026;-74
2022/12/03 08:08:34;;;;;;;6.95;6.65;;;5.80;99.90;;;;;;4983548;28;20094;-74
2022/12/03 08:11:03;;;;;;;0.10;0.10;;;5.90;99.90;;;;;;4986135;28;20042;-74
2022/12/03 08:13:29;;;;;;;0.00;0.00;;;5.80;99.90;;;;;;4969099;28;20037;-74
2022/12/03 08:16:01;;;;;;;0.00;0.00;;;5.90;99.90;;;;;;4989533;28;20015;-74
2022/12/03 08:18:27;;;;;;;0.10;0.10;;;5.90;99.90;;;;;;4988188;28;20026;-74
2022/12/03 08:20:53;;;;;;;0.10;0.10;;;;;;;;;;4989044;28;20044;-74
2022/12/03 08:23:22;;;;;;;0.10;0.10;;;6.20;99.90;;;;;;4990669;28;20029;-72
2022/12/03 08:25:49;;;;;;;2.97;2.75;;;6.10;99.90;;;;;;4987420;28;20030;-74
2022/12/03 08:28:21;;;;;;;0.10;0.10;;;6.30;99.90;;;;;;4990437;28;20057;-73
2022/12/03 08:30:54;;;;;;;7.20;6.97;;;6.30;99.90;;;;;;4992917;28;20022;-73
2022/12/03 08:33:32;;;;;;;0.10;0.10;;;6.50;99.90;;;;;;4990744;28;20022;-75
2022/12/03 08:36:09;;;;;;;0.10;0.10;;;6.40;99.90;;;;;;4992532;28;20078;-75
2022/12/03 08:38:37;;;;;;;0.15;0.15;;;6.40;99.90;;;;;;4984271;28;20105;-75
2022/12/03 08:41:12;;;;;;;0.20;0.20;;;6.40;99.90;;;;;;4985181;28;20022;-75
2022/12/03 08:43:41;;;;;;;0.10;0.10;;;9.00;99.90;;;;;;4983222;28;20131;-75
2022/12/03 08:46:11;;;;;;;0.20;0.20;;;6.60;99.90;;;;;;4983161;28;20547;-74
2022/12/03 08:48:38;;;;;;;0.10;0.10;;;6.60;99.90;;;;;;4983255;28;20030;-75
2022/12/03 08:51:19;;;;;;;6.00;5.78;;;6.80;99.90;;;;;;4983753;28;20640;-75
2022/12/03 08:53:57;;;;;;;1.67;1.60;;;6.80;99.90;;;;;;4983652;28;20014;-75
2022/12/03 08:56:27;;;;;;;0.20;0.20;;;7.20;99.90;;;;;;4966299;28;20137;-74
2022/12/03 08:59:24;;;;;;;2.22;2.13;;;7.00;99.90;;;;;;4984151;28;20028;-75
2022/12/03 09:01:52;;;;;;;2.45;2.35;;;7.10;99.90;;;;;;4982921;28;20030;-74
2022/12/03 09:04:35;;;;;;;0.57;0.57;;;7.20;99.90;;;;;;4965629;28;20034;-75
2022/12/03 09:07:01;;;;;;;0.20;0.20;;;7.30;99.90;;;;;;4982372;28;20047;-74
2022/12/03 09:09:26;;;;;;;1.55;1.48;;;7.40;99.90;;;;;;4964691;28;20034;-74
2022/12/03 09:11:53;;;;;;;5.07;4.65;;;7.50;99.90;;;;;;4983509;28;20026;-73
2022/12/03 09:14:22;;;;;;;0.73;0.73;;;7.50;99.90;;;;;;4982732;28;20025;-74
2022/12/03 09:16:54;;;;;;;15.35;14.70;;;7.50;99.90;;;;;;4983984;28;20033;-74
2022/12/03 09:19:25;;;;;;;2.85;2.78;;;7.50;99.90;;;;;;4965151;28;20031;-75
2022/12/03 09:21:52;;;;;;;1.85;1.75;;;7.40;99.90;;;;;;4982249;28;20022;-74
2022/12/03 09:24:18;;;;;;;11.63;10.88;;;7.40;99.90;;;;;;4982687;28;20030;-74
2022/12/03 09:26:44;;;;;;;0.20;0.20;;;7.40;99.90;;;;;;4981611;28;20711;-74
2022/12/03 09:29:10;;;;;;;0.22;0.22;;;7.60;99.90;;;;;;4981893;28;20118;-73
2022/12/03 09:31:37;;;;;;;0.20;0.20;;;10.40;99.90;;;;;;4983441;28;20068;-76
2022/12/03 09:34:04;;;;;;;0.25;0.25;;;7.90;99.90;;;;;;4969047;28;20019;-74
2022/12/03 09:36:31;;;;;;;26.95;25.10;;;8.00;99.90;;;;;;4985615;28;20076;-75
2022/12/03 09:38:57;;;;;;;5.20;4.95;;;8.10;99.90;;;;;;4984340;28;20038;-75
2022/12/03 09:41:23;;;;;;;0.75;0.75;;;8.10;99.90;;;;;;4983346;28;20030;-75
2022/12/03 09:43:51;;;;;;;0.73;0.73;;;8.20;99.90;;;;;;4982862;28;20109;-75
2022/12/03 09:46:18;;;;;;;0.88;0.88;;;8.30;99.90;;;;;;4982408;28;20014;-74
2022/12/03 09:48:44;;;;;;;4.18;3.97;;;8.40;99.90;;;;;;4965408;28;20024;-74
2022/12/03 09:51:10;;;;;;;0.52;0.52;;;8.70;99.90;;;;;;4964822;28;20577;-74
2022/12/03 09:53:36;;;;;;;0.50;0.50;;;8.90;99.90;;;;;;4982063;28;20015;-74
2022/12/03 09:56:02;;;;;;;27.02;25.48;;;;;;;;;;4965996;28;20030;-75
2022/12/03 09:58:28;;;;;;;10.82;10.25;;;9.00;99.90;;;;;;4984740;28;20022;-75
2022/12/03 10:00:55;;;;;;;0.40;0.40;;;8.90;99.90;;;;;;4984529;28;20106;-75
2022/12/03 10:03:24;;;;;;;3.63;3.42;;;8.90;99.90;;;;;;4982261;28;20702;-74
2022/12/03 10:05:52;;;;;;;2.55;2.40;;;8.90;99.90;;;;;;4982564;28;20034;-75
2022/12/03 10:08:20;;;;;;;21.27;20.30;;;8.90;99.90;;;;;;4982764;28;20068;-74
2022/12/03 10:10:53;;;;;;;9.57;9.10;;;8.80;99.90;;;;;;4982257;28;20493;-74
2022/12/03 10:13:29;;;;;;;1.42;1.40;;;8.90;99.90;;;;;;4983167;28;20049;-74
2022/12/03 10:15:58;;;;;;;10.52;10.00;;;8.70;99.90;;;;;;4983907;28;20521;-74
2022/12/03 10:18:29;;;;;;;38.97;34.97;;;8.90;99.90;;;;;;4964755;28;20483;-74
2022/12/03 10:20:55;;;;;;;3.15;3.05;;;9.10;99.90;;;;;;4981632;28;20224;-74
2022/12/03 10:23:27;;;;;;;3.67;3.53;;;9.20;99.90;;;;;;4982474;28;20089;-74
2022/12/03 10:25:56;;;;;;;6.30;5.93;;;9.00;99.90;;;;;;4982338;28;20510;-75
2022/12/03 10:28:35;;;;;;;8.80;8.38;;;7.90;99.90;;;;;;4982223;28;20054;-74
2022/12/03 10:31:05;;;;;;;13.45;12.85;;;8.90;99.90;;;;;;4982303;28;20045;-76
2022/12/03 10:33:40;;;;;;;8.50;7.97;;;8.90;99.90;;;;;;4983763;28;20026;-74
2022/12/03 10:36:25;;;;;;;3.55;3.38;;;8.80;99.90;;;;;;4985161;28;20040;-75
2022/12/03 10:39:14;;;;;;;8.27;7.65;;;8.60;99.90;;;;;;4972798;28;20271;-75
2022/12/03 10:41:41;;;;;;;0.20;0.20;;;8.40;99.90;;;;;;4970683;28;20064;-75
2022/12/03 10:44:21;;;;;;;4.35;4.15;;;8.20;99.90;;;;;;4988112;28;20100;-75
2022/12/03 10:47:08;;;;;;;4.18;4.03;;;8.20;99.90;;;;;;4984259;28;20026;-74
2022/12/03 10:49:34;;;;;;;0.17;0.17;;;8.00;99.90;;;;;;4982305;28;20228;-74
2022/12/03 10:52:01;;;;;;;1.95;1.88;;;7.90;99.90;;;;;;4982213;28;20034;-75
2022/12/03 10:54:29;;;;;;;0.85;0.82;;;7.90;99.90;;;;;;4983090;28;20449;-74
2022/12/03 10:56:55;;;;;;;3.45;3.30;;;8.00;99.90;;;;;;4984216;28;20275;-74
2022/12/03 10:59:25;;;;;;;0.57;0.57;;;8.00;99.90;;;;;;4982928;28;20031;-74
2022/12/03 11:01:51;;;;;;;0.25;0.25;;;8.10;99.90;;;;;;4983023;28;20560;-74
2022/12/03 11:04:24;;;;;;;0.68;0.68;;;8.10;99.90;;;;;;4982497;28;20145;-73
2022/12/03 11:06:50;;;;;;;0.63;0.63;;;8.10;99.90;;;;;;4984423;28;20130;-75
2022/12/03 11:09:24;;;;;;;0.50;0.50;;;8.10;99.90;;;;;;4966450;28;20101;-74
2022/12/03 11:11:49;;;;;;;2.30;2.20;;;8.30;99.90;;;;;;4985758;28;20033;-74
2022/12/03 11:14:53;;;;;;;2.70;2.60;;;8.50;99.90;;;;;;4983645;28;20398;-75
2022/12/03 11:17:43;;;;;;;1.52;1.52;;;8.70;99.90;;;;;;4982987;28;20042;-74
2022/12/03 11:20:31;;;;;;;0.20;0.20;;;8.90;99.90;;;;;;4982057;28;20506;-74
2022/12/03 11:22:57;;;;;;;4.70;4.50;;;9.00;99.90;;;;;;4964720;28;20027;-74
2022/12/03 11:25:26;;;;;;;0.75;0.75;;;9.00;99.90;;;;;;4982260;28;20405;-75
2022/12/03 11:28:11;;;;;;;6.70;6.32;;;9.00;99.90;;;;;;4983236;28;20331;-74
2022/12/03 11:30:49;;;;;;;0.47;0.47;;;9.00;99.90;;;;;;4981710;28;20031;-74
2022/12/03 11:33:31;;;;;;;49.90;12.48;;;9.00;99.90;;;;;;4966121;28;20022;-74
2022/12/03 11:36:03;;;;;;;0.40;0.40;;;9.00;99.90;;;;;;4983574;28;20477;-74
2022/12/03 11:38:49;;;;;;;8.25;7.68;;;9.00;99.90;;;;;;4981735;28;20022;-75
2022/12/03 11:41:26;;;;;;;2.40;2.30;;;9.00;99.90;;;;;;4981610;28;20026;-75
2022/12/03 11:43:52;;;;;;;6.88;6.57;;;8.90;99.90;;;;;;4964266;28;20035;-74
2022/12/03 11:46:34;;;;;;;5.68;5.35;;;6.50;99.90;;;;;;4982006;28;20076;-74
2022/12/03 11:49:01;;;;;;;0.38;0.38;;;9.10;99.90;;;;;;4984646;28;20034;-74
2022/12/03 11:51:29;;;;;;;2.63;2.47;;;9.00;99.90;;;;;;4965780;28;20125;-75
2022/12/03 11:53:57;;;;;;;27.42;25.05;;;9.10;99.90;;;;;;4985131;28;20302;-74
2022/12/03 11:56:26;;;;;;;14.45;13.57;;;9.20;99.90;;;;;;4989671;28;20307;-75
2022/12/03 11:59:08;;;;;;;15.43;14.75;;;9.20;99.90;;;;;;4992046;28;20220;-76
2022/12/03 12:01:36;;;;;;;2.00;1.88;;;9.10;99.90;;;;;;4989116;28;20038;-75
2022/12/03 12:04:02;;;;;;;5.10;4.88;;;9.10;99.90;;;;;;4990447;28;20022;-77
2022/12/03 12:06:39;;;;;;;0.70;0.70;;;9.20;99.90;;;;;;4985727;28;20077;-76
2022/12/03 12:09:05;;;;;;;9.85;9.20;;;9.10;99.90;;;;;;4984621;28;20473;-75
2022/12/03 12:11:33;;;;;;;7.18;6.72;;;9.20;99.90;;;;;;4984379;28;20212;-76
2022/12/03 12:14:00;;;;;;;6.45;6.05;;;9.30;99.90;;;;;;4984069;28;20019;-73
2022/12/03 12:16:44;;;;;;;8.30;7.78;;;9.40;99.90;;;;;;4984647;28;20474;-75
2022/12/03 12:19:28;;;;;;;0.60;0.57;;;9.40;99.90;;;;;;4987607;28;20228;-74
2022/12/03 12:21:54;;;;;;;10.07;9.57;;;9.50;99.90;;;;;;4985826;28;20124;-74
2022/12/03 12:24:39;;;;;;;44.05;27.45;;;9.60;99.90;;;;;;4988279;28;20053;-74
2022/12/03 12:27:10;;;;;;;4.80;4.60;;;9.60;99.90;;;;;;4984543;28;20015;-74
2022/12/03 12:29:39;;;;;;;4.50;4.30;;;9.10;99.90;;;;;;4985518;28;20537;-74
2022/12/03 12:32:14;;;;;;;21.65;20.00;;;9.60;99.90;;;;;;4984712;28;20102;-75
2022/12/03 12:34:43;;;;;;;5.05;4.75;;;9.50;99.90;;;;;;4985294;28;20089;-75
2022/12/03 12:37:42;;;;;;;1.98;1.88;;;9.40;99.90;;;;;;4985019;28;20130;-75
2022/12/03 12:40:14;;;;;;;9.93;9.38;;;10.80;99.90;;;;;;4886065;29;20078;-75
2022/12/03 12:42:59;;;;;;;0.93;0.93;;;9.30;99.90;;;;;;4870160;29;20070;-75
2022/12/03 12:45:32;;;;;;;16.92;12.45;;;9.30;99.90;;;;;;4886104;29;20044;-74
2022/12/03 12:48:19;;;;;;;0.20;0.20;;;9.20;99.90;;;;;;4885384;29;20314;-75
2022/12/03 12:50:47;;;;;;;0.40;0.40;;;9.10;99.90;;;;;;4870220;29;20296;-75
2022/12/03 12:53:23;;;;;;;1.70;1.63;;;9.10;99.90;;;;;;4885690;29;20068;-74
2022/12/03 12:55:54;;;;;;;0.77;0.77;;;9.10;99.90;;;;;;4885954;29;20037;-75
2022/12/03 12:58:20;;;;;;;17.05;16.25;;;9.10;99.90;;;;;;4885823;29;20044;-74
2022/12/03 13:00:52;;;;;;;14.25;13.55;;;9.10;99.90;;;;;;4885883;29;20037;-74
2022/12/03 13:03:20;;;;;;;5.07;4.78;;;9.10;99.90;;;;;;4885602;29;20032;-74
2022/12/03 13:05:49;;;;;;;1.63;1.58;;;9.10;99.90;;;;;;4885383;29;20576;-75
2022/12/03 13:08:39;;;;;;;4.88;4.57;;;9.00;99.90;;;;;;4869571;29;20092;-74
2022/12/03 13:11:10;;;;;;;0.60;0.60;;;9.10;99.90;;;;;;4884598;29;20059;-74
2022/12/03 13:13:41;;;;;;;5.18;4.97;;;9.10;99.90;;;;;;4885731;29;20025;-74
2022/12/03 13:16:10;;;;;;;4.22;4.03;;;9.10;99.90;;;;;;4871398;28;20051;-74
2022/12/03 13:18:36;;;;;;;14.75;13.60;;;9.10;99.90;;;;;;4965429;28;20030;-75
2022/12/03 13:21:38;;;;;;;2.50;2.40;;;9.20;99.90;;;;;;4984283;28;20033;-74
2022/12/03 13:24:26;;;;;;;2.20;2.10;;;9.20;99.90;;;;;;4983988;28;20027;-75
2022/12/03 13:26:52;;;;;;;2.60;2.47;;;8.20;99.90;;;;;;4965487;28;20239;-74
2022/12/03 13:29:19;;;;;;;0.82;0.82;;;9.20;99.90;;;;;;4966694;28;20034;-74